sensor_id;sensor_type;location;lat;lon;timestamp;P1;durP1;ratioP1;P2;durP2;ratioP2
53765;SDS011;39682;51.490;7.310;2023-02-13T00:01:25;25.50;;;15.52;;
53765;SDS011;39682;51.490;7.310;2023-02-13T00:03:51;24.50;;;15.80;;
53765;SDS011;39682;51.490;7.310;2023-02-13T00:06:17;23.02;;;14.75;;
53765;SDS011;39682;51.490;7.310;2023-02-13T00:08:43;25.80;;;14.27;;
53765;SDS011;39682;51.490;7.310;2023-02-13T00:11:09;25.30;;;14.90;;
53765;SDS011;39682;51.490;7.310;2023-02-13T00:13:35;25.73;;;16.67;;
53765;SDS011;39682;51.490;7.310;2023-02-13T00:16:02;26.65;;;16.42;;
53765;SDS011;39682;51.490;7.310;2023-02-13T00:18:31;27.88;;;15.75;;
53765;SDS011;39682;51.490;7.310;2023-02-13T00:21:01;26.13;;;14.80;;
53765;SDS011;39682;51.490;7.310;2023-02-13T00:23:29;26.45;;;15.88;;
53765;SDS011;39682;51.490;7.310;2023-02-13T00:25:55;27.98;;;16.85;;
53765;SDS011;39682;51.490;7.310;2023-02-13T00:28:21;24.80;;;15.63;;
53765;SDS011;39682;51.490;7.310;2023-02-13T00:30:47;24.17;;;15.85;;
53765;SDS011;39682;51.490;7.310;2023-02-13T00:33:13;27.35;;;16.23;;
53765;SDS011;39682;51.490;7.310;2023-02-13T00:35:39;23.92;;;15.60;;
53765;SDS011;39682;51.490;7.310;2023-02-13T00:38:05;25.80;;;15.50;;
53765;SDS011;39682;51.490;7.310;2023-02-13T00:40:31;27.77;;;17.10;;
53765;SDS011;39682;51.490;7.310;2023-02-13T00:42:57;25.48;;;16.52;;
53765;SDS011;39682;51.490;7.310;2023-02-13T00:45:23;27.52;;;17.02;;
53765;SDS011;39682;51.490;7.310;2023-02-13T00:47:49;28.85;;;17.42;;
53765;SDS011;39682;51.490;7.310;2023-02-13T00:50:15;28.58;;;18.23;;
53765;SDS011;39682;51.490;7.310;2023-02-13T00:52:41;29.23;;;18.55;;
53765;SDS011;39682;51.490;7.310;2023-02-13T00:55:07;27.70;;;15.98;;
53765;SDS011;39682;51.490;7.310;2023-02-13T00:57:33;26.98;;;17.02;;
53765;SDS011;39682;51.490;7.310;2023-02-13T00:59:59;30.13;;;17.08;;
53765;SDS011;39682;51.490;7.310;2023-02-13T01:02:25;26.42;;;16.10;;
53765;SDS011;39682;51.490;7.310;2023-02-13T01:04:51;25.95;;;16.08;;
53765;SDS011;39682;51.490;7.310;2023-02-13T01:07:17;25.13;;;14.68;;
53765;SDS011;39682;51.490;7.310;2023-02-13T01:09:43;25.92;;;16.10;;
53765;SDS011;39682;51.490;7.310;2023-02-13T01:12:09;24.60;;;16.20;;
53765;SDS011;39682;51.490;7.310;2023-02-13T01:14:35;22.40;;;15.05;;
53765;SDS011;39682;51.490;7.310;2023-02-13T01:17:01;23.73;;;15.05;;
53765;SDS011;39682;51.490;7.310;2023-02-13T01:19:27;25.38;;;12.82;;
53765;SDS011;39682;51.490;7.310;2023-02-13T01:21:53;19.45;;;12.25;;
53765;SDS011;39682;51.490;7.310;2023-02-13T01:24:19;19.88;;;11.68;;
53765;SDS011;39682;51.490;7.310;2023-02-13T01:26:45;17.80;;;12.18;;
53765;SDS011;39682;51.490;7.310;2023-02-13T01:29:11;20.40;;;11.20;;
53765;SDS011;39682;51.490;7.310;2023-02-13T01:31:37;18.80;;;11.57;;
53765;SDS011;39682;51.490;7.310;2023-02-13T01:34:03;17.17;;;10.70;;
53765;SDS011;39682;51.490;7.310;2023-02-13T01:36:29;13.20;;;8.77;;
53765;SDS011;39682;51.490;7.310;2023-02-13T01:38:56;13.95;;;8.88;;
53765;SDS011;39682;51.490;7.310;2023-02-13T01:41:23;13.63;;;7.70;;
53765;SDS011;39682;51.490;7.310;2023-02-13T01:43:50;16.08;;;9.48;;
53765;SDS011;39682;51.490;7.310;2023-02-13T01:46:22;14.15;;;8.30;;
53765;SDS011;39682;51.490;7.310;2023-02-13T01:48:49;17.63;;;9.75;;
53765;SDS011;39682;51.490;7.310;2023-02-13T01:51:17;16.00;;;9.35;;
53765;SDS011;39682;51.490;7.310;2023-02-13T01:53:48;14.73;;;8.75;;
53765;SDS011;39682;51.490;7.310;2023-02-13T01:56:21;18.42;;;9.13;;
53765;SDS011;39682;51.490;7.310;2023-02-13T01:58:50;13.65;;;8.88;;
53765;SDS011;39682;51.490;7.310;2023-02-13T02:01:17;15.55;;;9.82;;
53765;SDS011;39682;51.490;7.310;2023-02-13T02:03:45;15.38;;;9.48;;
53765;SDS011;39682;51.490;7.310;2023-02-13T02:09:11;13.82;;;8.45;;
53765;SDS011;39682;51.490;7.310;2023-02-13T02:14:23;10.00;;;6.15;;
53765;SDS011;39682;51.490;7.310;2023-02-13T02:16:50;8.38;;;5.85;;
53765;SDS011;39682;51.490;7.310;2023-02-13T02:24:53;7.03;;;4.60;;
53765;SDS011;39682;51.490;7.310;2023-02-13T02:27:38;7.45;;;4.13;;
53765;SDS011;39682;51.490;7.310;2023-02-13T02:35:32;6.75;;;4.20;;
53765;SDS011;39682;51.490;7.310;2023-02-13T02:40:50;10.85;;;5.25;;
53765;SDS011;39682;51.490;7.310;2023-02-13T02:48:28;6.57;;;4.30;;
53765;SDS011;39682;51.490;7.310;2023-02-13T02:51:19;6.68;;;4.40;;
53765;SDS011;39682;51.490;7.310;2023-02-13T02:53:57;9.05;;;5.72;;
53765;SDS011;39682;51.490;7.310;2023-02-13T02:56:26;11.18;;;4.72;;
53765;SDS011;39682;51.490;7.310;2023-02-13T02:58:57;7.28;;;4.40;;
53765;SDS011;39682;51.490;7.310;2023-02-13T03:01:44;6.95;;;4.15;;
53765;SDS011;39682;51.490;7.310;2023-02-13T03:04:30;5.45;;;3.53;;
53765;SDS011;39682;51.490;7.310;2023-02-13T03:07:16;6.22;;;3.53;;
53765;SDS011;39682;51.490;7.310;2023-02-13T03:09:44;8.38;;;4.15;;
53765;SDS011;39682;51.490;7.310;2023-02-13T03:12:35;4.40;;;3.40;;
53765;SDS011;39682;51.490;7.310;2023-02-13T03:15:21;5.43;;;3.70;;
53765;SDS011;39682;51.490;7.310;2023-02-13T03:17:48;7.35;;;4.25;;
53765;SDS011;39682;51.490;7.310;2023-02-13T03:20:42;6.32;;;3.85;;
53765;SDS011;39682;51.490;7.310;2023-02-13T03:28:41;5.38;;;3.90;;
53765;SDS011;39682;51.490;7.310;2023-02-13T03:31:35;8.07;;;4.20;;
53765;SDS011;39682;51.490;7.310;2023-02-13T03:34:08;6.70;;;4.53;;
53765;SDS011;39682;51.490;7.310;2023-02-13T03:36:57;6.03;;;3.70;;
53765;SDS011;39682;51.490;7.310;2023-02-13T03:42:14;7.18;;;4.35;;
53765;SDS011;39682;51.490;7.310;2023-02-13T03:44:43;6.53;;;4.63;;
53765;SDS011;39682;51.490;7.310;2023-02-13T03:47:11;5.75;;;3.85;;
53765;SDS011;39682;51.490;7.310;2023-02-13T03:49:45;6.78;;;4.35;;
53765;SDS011;39682;51.490;7.310;2023-02-13T03:55:18;5.68;;;3.65;;
53765;SDS011;39682;51.490;7.310;2023-02-13T03:58:09;4.25;;;3.20;;
53765;SDS011;39682;51.490;7.310;2023-02-13T04:00:56;6.20;;;3.65;;
53765;SDS011;39682;51.490;7.310;2023-02-13T04:05:54;5.22;;;3.30;;
53765;SDS011;39682;51.490;7.310;2023-02-13T04:08:21;4.95;;;3.00;;
53765;SDS011;39682;51.490;7.310;2023-02-13T04:10:56;6.15;;;3.65;;
53765;SDS011;39682;51.490;7.310;2023-02-13T04:13:29;5.75;;;3.33;;
53765;SDS011;39682;51.490;7.310;2023-02-13T04:16:02;5.07;;;2.95;;
53765;SDS011;39682;51.490;7.310;2023-02-13T04:18:31;6.43;;;3.38;;
53765;SDS011;39682;51.490;7.310;2023-02-13T04:21:01;4.40;;;3.08;;
53765;SDS011;39682;51.490;7.310;2023-02-13T04:23:27;4.10;;;2.67;;
53765;SDS011;39682;51.490;7.310;2023-02-13T04:25:53;6.82;;;3.53;;
53765;SDS011;39682;51.490;7.310;2023-02-13T04:28:20;7.03;;;3.03;;
53765;SDS011;39682;51.490;7.310;2023-02-13T04:30:46;5.88;;;3.38;;
53765;SDS011;39682;51.490;7.310;2023-02-13T04:33:13;4.82;;;3.15;;
53765;SDS011;39682;51.490;7.310;2023-02-13T04:35:39;5.55;;;3.60;;
53765;SDS011;39682;51.490;7.310;2023-02-13T04:38:05;6.25;;;3.50;;
53765;SDS011;39682;51.490;7.310;2023-02-13T04:40:31;5.50;;;3.30;;
53765;SDS011;39682;51.490;7.310;2023-02-13T04:42:57;6.57;;;3.83;;
53765;SDS011;39682;51.490;7.310;2023-02-13T04:45:23;5.93;;;4.10;;
53765;SDS011;39682;51.490;7.310;2023-02-13T04:47:50;6.90;;;3.90;;
53765;SDS011;39682;51.490;7.310;2023-02-13T04:50:16;6.38;;;4.18;;
53765;SDS011;39682;51.490;7.310;2023-02-13T04:52:42;7.32;;;3.80;;
53765;SDS011;39682;51.490;7.310;2023-02-13T04:55:08;5.10;;;3.85;;
53765;SDS011;39682;51.490;7.310;2023-02-13T04:57:34;6.38;;;4.10;;
53765;SDS011;39682;51.490;7.310;2023-02-13T05:00:00;5.90;;;4.10;;
53765;SDS011;39682;51.490;7.310;2023-02-13T05:02:26;6.78;;;3.72;;
53765;SDS011;39682;51.490;7.310;2023-02-13T05:04:52;6.07;;;4.25;;
53765;SDS011;39682;51.490;7.310;2023-02-13T05:07:18;8.02;;;4.32;;
53765;SDS011;39682;51.490;7.310;2023-02-13T05:09:44;6.60;;;3.55;;
53765;SDS011;39682;51.490;7.310;2023-02-13T05:12:10;6.78;;;4.25;;
53765;SDS011;39682;51.490;7.310;2023-02-13T05:14:36;8.77;;;4.32;;
53765;SDS011;39682;51.490;7.310;2023-02-13T05:17:02;6.85;;;4.55;;
53765;SDS011;39682;51.490;7.310;2023-02-13T05:19:28;8.20;;;4.40;;
53765;SDS011;39682;51.490;7.310;2023-02-13T05:21:54;7.55;;;4.43;;
53765;SDS011;39682;51.490;7.310;2023-02-13T05:24:38;7.07;;;4.75;;
53765;SDS011;39682;51.490;7.310;2023-02-13T05:27:04;8.02;;;4.85;;
53765;SDS011;39682;51.490;7.310;2023-02-13T05:29:30;7.70;;;4.70;;
53765;SDS011;39682;51.490;7.310;2023-02-13T05:31:56;7.25;;;3.80;;
53765;SDS011;39682;51.490;7.310;2023-02-13T05:34:24;7.85;;;4.18;;
53765;SDS011;39682;51.490;7.310;2023-02-13T05:36:50;9.38;;;4.90;;
53765;SDS011;39682;51.490;7.310;2023-02-13T05:39:16;7.72;;;4.95;;
53765;SDS011;39682;51.490;7.310;2023-02-13T05:41:42;8.18;;;4.13;;
53765;SDS011;39682;51.490;7.310;2023-02-13T05:44:08;9.15;;;4.40;;
53765;SDS011;39682;51.490;7.310;2023-02-13T05:46:35;8.30;;;4.55;;
53765;SDS011;39682;51.490;7.310;2023-02-13T05:49:02;7.93;;;4.53;;
53765;SDS011;39682;51.490;7.310;2023-02-13T05:51:28;7.07;;;4.32;;
53765;SDS011;39682;51.490;7.310;2023-02-13T05:53:54;8.45;;;5.05;;
53765;SDS011;39682;51.490;7.310;2023-02-13T05:56:20;9.27;;;5.07;;
53765;SDS011;39682;51.490;7.310;2023-02-13T05:58:46;10.48;;;6.00;;
53765;SDS011;39682;51.490;7.310;2023-02-13T06:01:12;18.73;;;10.40;;
53765;SDS011;39682;51.490;7.310;2023-02-13T06:03:38;25.73;;;13.57;;
53765;SDS011;39682;51.490;7.310;2023-02-13T06:06:04;15.63;;;9.18;;
53765;SDS011;39682;51.490;7.310;2023-02-13T06:08:30;10.48;;;6.28;;
53765;SDS011;39682;51.490;7.310;2023-02-13T06:10:56;16.73;;;8.98;;
53765;SDS011;39682;51.490;7.310;2023-02-13T06:13:22;14.40;;;8.38;;
53765;SDS011;39682;51.490;7.310;2023-02-13T06:15:48;12.45;;;7.72;;
53765;SDS011;39682;51.490;7.310;2023-02-13T06:18:14;13.27;;;7.80;;
53765;SDS011;39682;51.490;7.310;2023-02-13T06:20:41;12.52;;;7.63;;
53765;SDS011;39682;51.490;7.310;2023-02-13T06:23:07;12.48;;;7.47;;
53765;SDS011;39682;51.490;7.310;2023-02-13T06:25:33;11.35;;;6.35;;
53765;SDS011;39682;51.490;7.310;2023-02-13T06:28:00;11.90;;;6.00;;
53765;SDS011;39682;51.490;7.310;2023-02-13T06:30:26;10.05;;;5.30;;
53765;SDS011;39682;51.490;7.310;2023-02-13T06:32:52;10.52;;;5.97;;
53765;SDS011;39682;51.490;7.310;2023-02-13T06:35:18;12.07;;;6.13;;
53765;SDS011;39682;51.490;7.310;2023-02-13T06:37:44;9.93;;;5.97;;
53765;SDS011;39682;51.490;7.310;2023-02-13T06:40:10;10.43;;;5.35;;
53765;SDS011;39682;51.490;7.310;2023-02-13T06:42:37;10.15;;;5.80;;
53765;SDS011;39682;51.490;7.310;2023-02-13T06:45:03;10.23;;;5.20;;
53765;SDS011;39682;51.490;7.310;2023-02-13T06:47:29;13.23;;;5.72;;
53765;SDS011;39682;51.490;7.310;2023-02-13T06:49:55;9.02;;;5.43;;
53765;SDS011;39682;51.490;7.310;2023-02-13T06:52:21;11.25;;;5.57;;
53765;SDS011;39682;51.490;7.310;2023-02-13T06:54:47;13.27;;;6.18;;
53765;SDS011;39682;51.490;7.310;2023-02-13T06:57:13;15.38;;;5.95;;
53765;SDS011;39682;51.490;7.310;2023-02-13T06:59:42;10.35;;;6.18;;
53765;SDS011;39682;51.490;7.310;2023-02-13T07:02:11;15.93;;;6.63;;
53765;SDS011;39682;51.490;7.310;2023-02-13T07:04:37;10.38;;;5.53;;
53765;SDS011;39682;51.490;7.310;2023-02-13T07:07:03;10.38;;;5.88;;
53765;SDS011;39682;51.490;7.310;2023-02-13T07:09:29;12.52;;;6.47;;
53765;SDS011;39682;51.490;7.310;2023-02-13T07:11:55;11.00;;;6.10;;
53765;SDS011;39682;51.490;7.310;2023-02-13T07:14:21;12.82;;;6.03;;
53765;SDS011;39682;51.490;7.310;2023-02-13T07:16:47;11.07;;;6.20;;
53765;SDS011;39682;51.490;7.310;2023-02-13T07:19:13;14.30;;;6.43;;
53765;SDS011;39682;51.490;7.310;2023-02-13T07:21:39;13.20;;;6.68;;
53765;SDS011;39682;51.490;7.310;2023-02-13T07:24:05;10.45;;;6.68;;
53765;SDS011;39682;51.490;7.310;2023-02-13T07:26:31;12.93;;;6.88;;
53765;SDS011;39682;51.490;7.310;2023-02-13T07:28:57;11.18;;;6.03;;
53765;SDS011;39682;51.490;7.310;2023-02-13T07:31:23;18.15;;;6.78;;
53765;SDS011;39682;51.490;7.310;2023-02-13T07:33:49;13.25;;;6.38;;
53765;SDS011;39682;51.490;7.310;2023-02-13T07:36:15;12.00;;;6.45;;
53765;SDS011;39682;51.490;7.310;2023-02-13T07:38:41;13.15;;;6.63;;
53765;SDS011;39682;51.490;7.310;2023-02-13T07:41:08;13.30;;;5.97;;
53765;SDS011;39682;51.490;7.310;2023-02-13T07:43:34;10.93;;;5.82;;
53765;SDS011;39682;51.490;7.310;2023-02-13T07:46:00;12.55;;;6.35;;
53765;SDS011;39682;51.490;7.310;2023-02-13T07:48:26;10.35;;;6.13;;
53765;SDS011;39682;51.490;7.310;2023-02-13T07:50:53;13.95;;;6.72;;
53765;SDS011;39682;51.490;7.310;2023-02-13T07:53:19;11.40;;;6.60;;
53765;SDS011;39682;51.490;7.310;2023-02-13T07:55:46;12.57;;;6.53;;
53765;SDS011;39682;51.490;7.310;2023-02-13T07:58:12;13.25;;;6.75;;
53765;SDS011;39682;51.490;7.310;2023-02-13T08:00:38;14.60;;;7.13;;
53765;SDS011;39682;51.490;7.310;2023-02-13T08:03:04;14.65;;;7.22;;
53765;SDS011;39682;51.490;7.310;2023-02-13T08:05:30;10.93;;;6.22;;
53765;SDS011;39682;51.490;7.310;2023-02-13T08:07:56;11.52;;;7.07;;
53765;SDS011;39682;51.490;7.310;2023-02-13T08:10:22;10.48;;;5.82;;
53765;SDS011;39682;51.490;7.310;2023-02-13T08:13:07;12.88;;;6.97;;
53765;SDS011;39682;51.490;7.310;2023-02-13T08:15:34;11.88;;;6.00;;
53765;SDS011;39682;51.490;7.310;2023-02-13T08:18:00;10.25;;;5.82;;
53765;SDS011;39682;51.490;7.310;2023-02-13T08:20:26;11.77;;;6.30;;
53765;SDS011;39682;51.490;7.310;2023-02-13T08:22:52;9.80;;;5.80;;
53765;SDS011;39682;51.490;7.310;2023-02-13T08:25:18;12.88;;;6.70;;
53765;SDS011;39682;51.490;7.310;2023-02-13T08:27:45;9.85;;;6.38;;
53765;SDS011;39682;51.490;7.310;2023-02-13T08:30:11;10.85;;;6.28;;
53765;SDS011;39682;51.490;7.310;2023-02-13T08:32:39;8.45;;;5.75;;
53765;SDS011;39682;51.490;7.310;2023-02-13T08:35:05;9.68;;;5.88;;
53765;SDS011;39682;51.490;7.310;2023-02-13T08:37:31;11.77;;;5.70;;
53765;SDS011;39682;51.490;7.310;2023-02-13T08:39:57;9.10;;;5.65;;
53765;SDS011;39682;51.490;7.310;2023-02-13T08:42:22;9.95;;;5.70;;
53765;SDS011;39682;51.490;7.310;2023-02-13T08:44:48;9.55;;;5.78;;
53765;SDS011;39682;51.490;7.310;2023-02-13T08:47:14;8.60;;;4.97;;
53765;SDS011;39682;51.490;7.310;2023-02-13T08:49:40;9.98;;;5.60;;
53765;SDS011;39682;51.490;7.310;2023-02-13T08:52:07;8.23;;;5.13;;
53765;SDS011;39682;51.490;7.310;2023-02-13T08:54:33;9.95;;;5.63;;
53765;SDS011;39682;51.490;7.310;2023-02-13T08:57:00;8.82;;;5.13;;
53765;SDS011;39682;51.490;7.310;2023-02-13T08:59:26;7.70;;;4.85;;
53765;SDS011;39682;51.490;7.310;2023-02-13T09:01:52;8.70;;;5.40;;
53765;SDS011;39682;51.490;7.310;2023-02-13T09:04:18;7.65;;;4.57;;
53765;SDS011;39682;51.490;7.310;2023-02-13T09:06:44;9.02;;;5.05;;
53765;SDS011;39682;51.490;7.310;2023-02-13T09:09:10;7.72;;;4.72;;
53765;SDS011;39682;51.490;7.310;2023-02-13T09:11:36;9.20;;;5.45;;
53765;SDS011;39682;51.490;7.310;2023-02-13T09:14:02;8.98;;;5.38;;
53765;SDS011;39682;51.490;7.310;2023-02-13T09:16:28;7.20;;;4.88;;
53765;SDS011;39682;51.490;7.310;2023-02-13T09:18:54;14.00;;;5.97;;
53765;SDS011;39682;51.490;7.310;2023-02-13T09:21:20;7.75;;;4.53;;
53765;SDS011;39682;51.490;7.310;2023-02-13T09:23:47;8.30;;;4.70;;
53765;SDS011;39682;51.490;7.310;2023-02-13T09:26:15;6.75;;;4.32;;
53765;SDS011;39682;51.490;7.310;2023-02-13T09:28:44;9.48;;;5.20;;
53765;SDS011;39682;51.490;7.310;2023-02-13T09:31:12;8.95;;;5.45;;
53765;SDS011;39682;51.490;7.310;2023-02-13T09:33:41;7.45;;;4.93;;
53765;SDS011;39682;51.490;7.310;2023-02-13T09:36:12;7.63;;;4.65;;
53765;SDS011;39682;51.490;7.310;2023-02-13T09:38:38;9.52;;;4.75;;
53765;SDS011;39682;51.490;7.310;2023-02-13T09:41:18;7.45;;;4.70;;
53765;SDS011;39682;51.490;7.310;2023-02-13T09:43:48;8.20;;;5.25;;
53765;SDS011;39682;51.490;7.310;2023-02-13T09:46:17;7.53;;;4.53;;
53765;SDS011;39682;51.490;7.310;2023-02-13T09:48:44;7.45;;;4.65;;
53765;SDS011;39682;51.490;7.310;2023-02-13T09:51:15;10.00;;;5.35;;
53765;SDS011;39682;51.490;7.310;2023-02-13T09:53:43;7.60;;;4.35;;
53765;SDS011;39682;51.490;7.310;2023-02-13T09:56:15;10.27;;;4.63;;
53765;SDS011;39682;51.490;7.310;2023-02-13T09:58:45;8.88;;;5.13;;
53765;SDS011;39682;51.490;7.310;2023-02-13T10:01:26;7.20;;;5.03;;
53765;SDS011;39682;51.490;7.310;2023-02-13T10:03:57;7.80;;;4.78;;
53765;SDS011;39682;51.490;7.310;2023-02-13T10:06:31;9.07;;;5.25;;
53765;SDS011;39682;51.490;7.310;2023-02-13T10:09:12;8.45;;;4.43;;
53765;SDS011;39682;51.490;7.310;2023-02-13T10:11:44;8.95;;;4.80;;
53765;SDS011;39682;51.490;7.310;2023-02-13T10:14:15;7.35;;;4.78;;
53765;SDS011;39682;51.490;7.310;2023-02-13T10:16:59;7.30;;;4.75;;
53765;SDS011;39682;51.490;7.310;2023-02-13T10:21:58;6.53;;;4.45;;
53765;SDS011;39682;51.490;7.310;2023-02-13T10:27:37;8.27;;;5.55;;
53765;SDS011;39682;51.490;7.310;2023-02-13T10:30:05;8.80;;;5.05;;
53765;SDS011;39682;51.490;7.310;2023-02-13T10:32:42;7.80;;;4.75;;
53765;SDS011;39682;51.490;7.310;2023-02-13T10:35:20;7.80;;;4.65;;
53765;SDS011;39682;51.490;7.310;2023-02-13T10:37:48;8.98;;;5.25;;
53765;SDS011;39682;51.490;7.310;2023-02-13T10:40:16;8.27;;;4.95;;
53765;SDS011;39682;51.490;7.310;2023-02-13T10:42:43;8.38;;;4.93;;
53765;SDS011;39682;51.490;7.310;2023-02-13T10:50:13;6.63;;;4.70;;
53765;SDS011;39682;51.490;7.310;2023-02-13T11:02:50;8.10;;;4.85;;
53765;SDS011;39682;51.490;7.310;2023-02-13T11:05:18;7.05;;;4.45;;
53765;SDS011;39682;51.490;7.310;2023-02-13T11:07:46;7.60;;;4.63;;
53765;SDS011;39682;51.490;7.310;2023-02-13T11:10:22;7.90;;;4.97;;
53765;SDS011;39682;51.490;7.310;2023-02-13T11:12:48;7.97;;;5.28;;
53765;SDS011;39682;51.490;7.310;2023-02-13T11:15:28;7.45;;;4.43;;
53765;SDS011;39682;51.490;7.310;2023-02-13T11:17:54;8.23;;;5.20;;
53765;SDS011;39682;51.490;7.310;2023-02-13T11:22:47;9.18;;;4.38;;
53765;SDS011;39682;51.490;7.310;2023-02-13T11:25:17;8.75;;;5.25;;
53765;SDS011;39682;51.490;7.310;2023-02-13T11:27:45;10.60;;;5.32;;
53765;SDS011;39682;51.490;7.310;2023-02-13T11:32:57;9.20;;;5.82;;
53765;SDS011;39682;51.490;7.310;2023-02-13T11:35:31;7.18;;;4.95;;
53765;SDS011;39682;51.490;7.310;2023-02-13T11:40:45;8.85;;;4.32;;
53765;SDS011;39682;51.490;7.310;2023-02-13T11:43:23;7.95;;;4.25;;
53765;SDS011;39682;51.490;7.310;2023-02-13T11:46:07;8.95;;;4.72;;
53765;SDS011;39682;51.490;7.310;2023-02-13T11:48:33;9.45;;;4.78;;
53765;SDS011;39682;51.490;7.310;2023-02-13T11:50:59;7.25;;;4.78;;
53765;SDS011;39682;51.490;7.310;2023-02-13T11:53:29;8.00;;;4.60;;
53765;SDS011;39682;51.490;7.310;2023-02-13T11:56:06;8.27;;;5.07;;
53765;SDS011;39682;51.490;7.310;2023-02-13T11:58:33;7.57;;;5.03;;
53765;SDS011;39682;51.490;7.310;2023-02-13T12:01:44;7.10;;;4.75;;
53765;SDS011;39682;51.490;7.310;2023-02-13T12:06:27;5.45;;;4.05;;
53765;SDS011;39682;51.490;7.310;2023-02-13T12:08:53;7.43;;;4.68;;
53765;SDS011;39682;51.490;7.310;2023-02-13T12:13:48;7.72;;;4.47;;
53765;SDS011;39682;51.490;7.310;2023-02-13T12:16:34;8.57;;;5.22;;
53765;SDS011;39682;51.490;7.310;2023-02-13T12:19:06;9.75;;;5.38;;
53765;SDS011;39682;51.490;7.310;2023-02-13T12:34:52;7.35;;;5.20;;
53765;SDS011;39682;51.490;7.310;2023-02-13T12:40:07;7.75;;;5.25;;
53765;SDS011;39682;51.490;7.310;2023-02-13T12:42:43;7.05;;;5.40;;
53765;SDS011;39682;51.490;7.310;2023-02-13T12:55:57;8.43;;;5.30;;
53765;SDS011;39682;51.490;7.310;2023-02-13T12:58:30;7.25;;;4.72;;
53765;SDS011;39682;51.490;7.310;2023-02-13T13:03:50;9.65;;;4.43;;
53765;SDS011;39682;51.490;7.310;2023-02-13T13:09:55;7.97;;;4.82;;
53765;SDS011;39682;51.490;7.310;2023-02-13T13:14:21;12.00;;;4.32;;
53765;SDS011;39682;51.490;7.310;2023-02-13T13:21:54;4.85;;;3.47;;
53765;SDS011;39682;51.490;7.310;2023-02-13T13:24:38;6.18;;;4.18;;
53765;SDS011;39682;51.490;7.310;2023-02-13T13:27:24;6.07;;;4.18;;
53765;SDS011;39682;51.490;7.310;2023-02-13T13:29:53;6.63;;;3.80;;
53765;SDS011;39682;51.490;7.310;2023-02-13T13:32:20;6.18;;;4.07;;
53765;SDS011;39682;51.490;7.310;2023-02-13T13:34:47;5.80;;;4.00;;
53765;SDS011;39682;51.490;7.310;2023-02-13T13:45:41;7.10;;;4.18;;
53765;SDS011;39682;51.490;7.310;2023-02-13T13:50:43;5.93;;;4.20;;
53765;SDS011;39682;51.490;7.310;2023-02-13T13:53:16;5.95;;;3.95;;
53765;SDS011;39682;51.490;7.310;2023-02-13T13:58:45;6.93;;;3.77;;
53765;SDS011;39682;51.490;7.310;2023-02-13T14:03:41;6.22;;;4.38;;
53765;SDS011;39682;51.490;7.310;2023-02-13T14:06:11;5.47;;;3.92;;
53765;SDS011;39682;51.490;7.310;2023-02-13T14:11:51;6.32;;;4.22;;
53765;SDS011;39682;51.490;7.310;2023-02-13T14:13:58;6.03;;;3.80;;
53765;SDS011;39682;51.490;7.310;2023-02-13T14:19:02;7.22;;;4.18;;
53765;SDS011;39682;51.490;7.310;2023-02-13T14:21:29;6.72;;;4.88;;
53765;SDS011;39682;51.490;7.310;2023-02-13T14:23:55;6.38;;;4.07;;
53765;SDS011;39682;51.490;7.310;2023-02-13T14:31:20;7.68;;;3.92;;
53765;SDS011;39682;51.490;7.310;2023-02-13T14:36:36;5.80;;;4.05;;
53765;SDS011;39682;51.490;7.310;2023-02-13T14:39:15;5.60;;;3.60;;
53765;SDS011;39682;51.490;7.310;2023-02-13T14:44:19;6.35;;;4.38;;
53765;SDS011;39682;51.490;7.310;2023-02-13T14:46:47;6.20;;;3.65;;
53765;SDS011;39682;51.490;7.310;2023-02-13T14:49:24;4.18;;;3.47;;
53765;SDS011;39682;51.490;7.310;2023-02-13T14:59:38;5.82;;;3.92;;
53765;SDS011;39682;51.490;7.310;2023-02-13T15:02:25;7.85;;;5.55;;
53765;SDS011;39682;51.490;7.310;2023-02-13T15:05:02;6.95;;;4.13;;
53765;SDS011;39682;51.490;7.310;2023-02-13T15:07:30;5.97;;;4.13;;
53765;SDS011;39682;51.490;7.310;2023-02-13T15:09:59;9.82;;;4.50;;
53765;SDS011;39682;51.490;7.310;2023-02-13T15:12:30;7.80;;;4.28;;
53765;SDS011;39682;51.490;7.310;2023-02-13T15:14:56;5.95;;;4.43;;
53765;SDS011;39682;51.490;7.310;2023-02-13T15:19:55;9.18;;;5.22;;
53765;SDS011;39682;51.490;7.310;2023-02-13T15:22:30;6.93;;;4.75;;
53765;SDS011;39682;51.490;7.310;2023-02-13T15:24:57;13.37;;;7.00;;
53765;SDS011;39682;51.490;7.310;2023-02-13T15:27:27;7.35;;;4.80;;
53765;SDS011;39682;51.490;7.310;2023-02-13T15:29:55;8.57;;;4.75;;
53765;SDS011;39682;51.490;7.310;2023-02-13T15:32:27;10.95;;;4.88;;
53765;SDS011;39682;51.490;7.310;2023-02-13T15:34:53;9.85;;;4.75;;
53765;SDS011;39682;51.490;7.310;2023-02-13T15:37:20;6.80;;;4.32;;
53765;SDS011;39682;51.490;7.310;2023-02-13T15:39:46;8.52;;;4.88;;
53765;SDS011;39682;51.490;7.310;2023-02-13T15:42:12;7.07;;;4.82;;
53765;SDS011;39682;51.490;7.310;2023-02-13T15:44:38;7.35;;;4.93;;
53765;SDS011;39682;51.490;7.310;2023-02-13T15:47:06;6.38;;;4.50;;
53765;SDS011;39682;51.490;7.310;2023-02-13T15:49:41;8.15;;;4.60;;
53765;SDS011;39682;51.490;7.310;2023-02-13T15:52:18;7.05;;;4.95;;
53765;SDS011;39682;51.490;7.310;2023-02-13T15:54:51;7.85;;;4.68;;
53765;SDS011;39682;51.490;7.310;2023-02-13T15:57:17;7.45;;;4.82;;
53765;SDS011;39682;51.490;7.310;2023-02-13T15:59:44;8.60;;;5.10;;
53765;SDS011;39682;51.490;7.310;2023-02-13T16:02:20;7.25;;;4.57;;
53765;SDS011;39682;51.490;7.310;2023-02-13T16:04:48;8.57;;;5.28;;
53765;SDS011;39682;51.490;7.310;2023-02-13T16:07:15;9.15;;;4.60;;
53765;SDS011;39682;51.490;7.310;2023-02-13T16:09:41;6.45;;;4.30;;
53765;SDS011;39682;51.490;7.310;2023-02-13T16:12:18;8.02;;;4.13;;
53765;SDS011;39682;51.490;7.310;2023-02-13T16:14:47;6.38;;;4.38;;
53765;SDS011;39682;51.490;7.310;2023-02-13T16:17:22;8.80;;;5.55;;
53765;SDS011;39682;51.490;7.310;2023-02-13T16:19:52;6.97;;;4.53;;
53765;SDS011;39682;51.490;7.310;2023-02-13T16:27:30;5.97;;;3.90;;
53765;SDS011;39682;51.490;7.310;2023-02-13T16:29:57;7.72;;;4.63;;
53765;SDS011;39682;51.490;7.310;2023-02-13T16:32:28;7.53;;;4.50;;
53765;SDS011;39682;51.490;7.310;2023-02-13T16:34:55;7.25;;;4.20;;
53765;SDS011;39682;51.490;7.310;2023-02-13T16:37:27;8.20;;;4.68;;
53765;SDS011;39682;51.490;7.310;2023-02-13T16:39:53;7.88;;;4.45;;
53765;SDS011;39682;51.490;7.310;2023-02-13T16:42:19;6.47;;;4.13;;
53765;SDS011;39682;51.490;7.310;2023-02-13T16:44:45;6.93;;;4.05;;
53765;SDS011;39682;51.490;7.310;2023-02-13T16:47:20;9.27;;;5.15;;
53765;SDS011;39682;51.490;7.310;2023-02-13T16:49:50;6.65;;;4.07;;
53765;SDS011;39682;51.490;7.310;2023-02-13T16:52:19;8.13;;;4.75;;
53765;SDS011;39682;51.490;7.310;2023-02-13T17:02:14;8.57;;;4.90;;
53765;SDS011;39682;51.490;7.310;2023-02-13T17:04:48;12.60;;;5.63;;
53765;SDS011;39682;51.490;7.310;2023-02-13T17:07:18;8.70;;;5.03;;
53765;SDS011;39682;51.490;7.310;2023-02-13T17:09:48;9.73;;;4.82;;
53765;SDS011;39682;51.490;7.310;2023-02-13T17:12:17;10.88;;;5.10;;
53765;SDS011;39682;51.490;7.310;2023-02-13T17:14:43;8.55;;;5.10;;
53765;SDS011;39682;51.490;7.310;2023-02-13T17:17:10;9.27;;;4.78;;
53765;SDS011;39682;51.490;7.310;2023-02-13T17:19:36;6.53;;;4.43;;
53765;SDS011;39682;51.490;7.310;2023-02-13T17:22:02;8.95;;;5.38;;
53765;SDS011;39682;51.490;7.310;2023-02-13T17:24:29;8.40;;;5.40;;
53765;SDS011;39682;51.490;7.310;2023-02-13T17:26:55;8.50;;;5.13;;
53765;SDS011;39682;51.490;7.310;2023-02-13T17:29:21;8.82;;;5.47;;
53765;SDS011;39682;51.490;7.310;2023-02-13T17:31:47;8.15;;;4.90;;
53765;SDS011;39682;51.490;7.310;2023-02-13T17:34:16;6.95;;;4.55;;
53765;SDS011;39682;51.490;7.310;2023-02-13T17:36:42;8.70;;;5.20;;
53765;SDS011;39682;51.490;7.310;2023-02-13T17:39:08;7.75;;;5.28;;